Benvolgut visitant, si us plau, ingressa Recuperar contrasenya
AVAMET paisatges
Union Alcoyana

Oriola Arneva

Dades diàries. Acumulats / Últims 30 dies disponibles

Data Temperatura (°C) Humitat rel. (%) Pressió rel. (hPa) Vent (km/h) Precipitació
Mínima Mitjana Màxima Amplitud
tèrmica
Mínima Mitjana Màxima Mínima Mitjana Màxima Predom. Mitjana Ràfega
màxima
Total
(mm)
Índex-n
Mínima Mitjana Màxima Mínima Mitjana Màxima n
0 a 1
P0 max
mm 5'
Dades mensuals acumulades fins l'últim dia disponible
05/2022 12,5 15,0 19,5 20,1 16,7 26,2 31,3 18,8 35 72 99 1.011 1.021 1.026   7,3 43,9 24,9
Dades anuals acumulades fins l'últim dia disponible
2022 3,1 10,4 19,5 14,5 10,2 19,8 31,3 28,2 12 73 99 1.001 1.022 1.037   8,2 80,6 273,3
Últims 30 dies disponibles
20-05-2022 19,5     24,2     29,5 10,0 50 66 81 1.023 1.024 1.025 SSE 11,1 42,1 0,0
19-05-2022 18,3     23,2     28,4 10,1 49 66 82 1.020 1.022 1.024 SE 9,2 33,1 0,0
18-05-2022 16,7     23,6     29,2 12,5 47 67 89 1.019 1.020 1.021 SE 7,0 31,3 0,0
17-05-2022 18,4     23,8     31,3 12,9 47 68 85 1.018 1.020 1.022 SSE 6,7 27,7 0,0
16-05-2022 17,8     23,3     29,5 11,7 49 70 90 1.019 1.020 1.022 S 7,1 29,5 0,0
15-05-2022 15,1     21,6     28,0 12,9 40 63 87 1.017 1.018 1.020 S 6,5 27,7 0,0
14-05-2022 15,0     21,1     27,5 12,5 37 67 97 1.018 1.021 1.022 SSE 6,2 33,1 0,0
13-05-2022 15,9     20,5     26,9 11,0 52 77 99 1.022 1.023 1.024 SSW 8,0 33,1 0,0
12-05-2022 13,6     19,1     24,9 11,3 52 77 99 1.021 1.022 1.024 SSE 8,1 33,1 0,0
11-05-2022 12,7     19,1     26,4 13,7 46 70 94 1.022 1.023 1.025 SSE 6,5 36,7 0,0
10-05-2022 14,0     19,6     26,0 12,0 47 65 86 1.024 1.025 1.026 SSW 5,9 29,5 0,0
09-05-2022 13,4     19,0     25,3 11,9 35 70 98 1.022 1.024 1.026 ESE 6,9 34,9 0,0
08-05-2022 13,1     19,5     27,7 14,6 37 64 90 1.019 1.021 1.023 SW 6,8 27,7 0,0
07-05-2022 14,0     18,9     25,6 11,6 43 68 90 1.021 1.022 1.023 SW 6,0 27,7 0,0
06-05-2022 12,5     17,7     25,7 13,2 54 77 95 1.020 1.022 1.025 S 7,5 34,9 0,0
05-05-2022 12,9     17,6     24,2 11,3 51 74 99 1.019 1.022 1.025 SSW 6,0 27,7 0,0
04-05-2022 12,9     14,5     16,7 3,8 90 97 99 1.015 1.017 1.020 SE 5,4 33,1 24,7 0,36 2,50
03-05-2022 12,9     16,7     22,4 9,5 55 82 96 1.011 1.013 1.015 SW 6,2 29,5 0,0
02-05-2022 15,6     18,0     22,6 7,0 63 83 96 1.011 1.014 1.017 ESE 9,7 43,9 0,2
01-05-2022 15,6     20,1     26,8 11,2 51 64 77 1.016 1.019 1.022 SSW 9,5 33,1 0,0
30-04-2022 12,8     19,3     27,8 15,0 40 62 86 1.020 1.023 1.026 WSW 8,7 27,7 0,0
29-04-2022 12,7     16,9     22,4 9,7 52 74 92 1.023 1.025 1.026 SSW 9,1 36,7 0,0
28-04-2022 12,0     13,8     15,8 3,8 82 95 99 1.020 1.022 1.024 S 4,4 20,2 6,4 0,72 3,00
27-04-2022 13,3     15,0     17,7 4,4 58 83 99 1.016 1.019 1.021 SW 5,5 18,4 1,5 0,26 0,30
26-04-2022 11,4     15,7     21,0 9,6 46 75 98 1.015 1.016 1.018 S 6,7 27,7 0,0
25-04-2022 12,8     16,9     22,1 9,3 45 71 89 1.014 1.015 1.016 SSE 7,0 29,5 0,0
24-04-2022 9,5     16,9     24,1 14,6 38 60 79 1.012 1.014 1.016 WSW 7,2 25,6 0,0
23-04-2022 12,0     16,9     21,9 9,9 35 59 88 1.001 1.006 1.013 W 15,4 58,7 0,2
22-04-2022 13,0     16,3     19,5 6,5 55 64 75 1.002 1.006 1.009 WSW 8,5 31,3 0,0
21-04-2022 11,7     16,6     22,5 10,8 39 55 69 1.006 1.008 1.010 WNW 10,0 38,5 0,0
Últims 13 mesos disponibles
04/2022 5,7 11,7 16,2 15,8 10,2 20,7 28,3 22,6 43 71 95 1.005 1.016 1.025 WSW 8,9 60,5 71,4
03/2022 7,6 10,9 17,8 13,9 13,2 18,0 22,3 14,7 58 82 99 1.005 1.019 1.028 E 9,5 80,6 151,2
02/2022 5,9 9,0 12,7 13,5 15,0 19,5 25,3 19,4 44 68 88 1.020 1.027 1.034 SW 7,4 46,1 4,8
01/2022 3,1 7,1 14,8 11,1 10,9 17,1 24,6 21,5 30 70 94 1.017 1.029 1.035 SW 7,5 55,1 21,0
12/2021 6,2 10,5 15,8 14,3 12,9 18,8 25,1 18,9 43 67 89 1.012 1.023 1.030 WSW 8,1 56,9 2,3
11/2021 7,5 10,7 20,5 14,6 14,1 19,7 26,8 19,3 36 63 92 1.009 1.018 1.028 WSW 8,4 46,1 26,6
10/2021 13,2 16,0 19,7 20,0 20,8 25,8 30,9 17,7 51 76 90 1.013 1.021 1.028 SW 5,9 47,9 32,3
09/2021 16,7 20,8 23,5 25,1 25,9 30,7 35,1 18,4 49 70 82 1.014 1.018 1.025 S 6,6 49,7 11,2
08/2021 20,1 23,1 26,0 27,4 28,9 33,1 42,8 22,7 53 69 79 1.008 1.016 1.021 E 7,9 51,5 0,0
07/2021 19,1 21,6 24,3 26,8 28,0 33,0 43,4 24,3 48 67 81 1.009 1.016 1.022 E 7,7 53,3 3,3
06/2021 16,0 19,2 22,6 23,7 25,0 29,0 34,4 18,4 44 67 87 1.011 1.018 1.022 ESE 7,8 51,5 27,2
05/2021 12,2 15,4 19,5 20,4 19,9 26,1 35,9 23,7 38 64 88 1.010 1.018 1.025 SE 8,2 47,9 59,7
04/2021 8,4 12,4 14,8 15,9 13,8 20,9 28,4 20,0 56 76 92 1.007 1.017 1.026 E 7,6 56,9 52,5
Tots els anys disponibles
2021 3,1 14,8 26,0 19,0 8,4 24,4 43,4 40,3 36 68 97 1.005 1.019 1.036 SSE 7,8 69,8 334,1
Temperatura (°C)
Humitat relativa (%)
Velocitat del vent i ràfega màxima (km/h)
Direcció del vent (°)
Pressió (hPa)
Precipitació (mm)
Nota sobre les dades: s'avisa a l'usuari de la provisionalitat i no oficialitat d'aquestes dades
Logo AVAMET blanc
Web allotjada a Sollutia
Llicència de Creative CommonsLa web d'AVAMET i els seus continguts estan subjectes a una llicència de
Reconeixement - No Comercial - Compartir igual
Avís legal - Política de privacitat - Política de cookies
NOVES ESTACIONS:  Vila-real - les Solaes (Soci), Calles - Parque de Emergencias (Soci), Bocairent - els Corrals (Soci), Sella - el Xarquer, Xàbia - Far del Cap de la Nau (Soci), Benicàssim - Quadre de Santiago (Soci), Sant Mateu - IES Maestrat (Soci)  / el Palomar (Ajuntament/Soci) / Atzeneta del Maestrat - Pla de Meanes (Ajuntament/Soci) / Onda - Sant Gil (Soci) / Onda - Ràtils CR Cota 220 (Soci) / la Vila Joiosa (Ajuntament/Soci) / Miramar - Platja (Ajuntament/Soci) / Massanassa - IES Massanassa (Soci) / Culla - Pla de les Vinyes (Ajuntament/Soci) - - -